sensor_id;sensor_type;location;lat;lon;timestamp;pressure;altitude;pressure_sealevel;temperature
15845;BMP180;50807;52.436;13.346;2023-04-06T00:00:03;101648.00;;;9.30
15845;BMP180;50807;52.436;13.346;2023-04-06T00:00:35;101654.00;;;9.30
15845;BMP180;50807;52.436;13.346;2023-04-06T00:01:07;101649.00;;;9.20
15845;BMP180;50807;52.436;13.346;2023-04-06T00:01:37;101651.00;;;9.20
15845;BMP180;50807;52.436;13.346;2023-04-06T00:02:08;101647.00;;;9.20
15845;BMP180;50807;52.436;13.346;2023-04-06T00:02:39;101658.00;;;9.20
15845;BMP180;50807;52.436;13.346;2023-04-06T00:03:11;101655.00;;;9.20
15845;BMP180;50807;52.436;13.346;2023-04-06T00:03:41;101655.00;;;9.20
15845;BMP180;50807;52.436;13.346;2023-04-06T00:04:12;101656.00;;;9.20
15845;BMP180;50807;52.436;13.346;2023-04-06T00:04:44;101654.00;;;9.20
15845;BMP180;50807;52.436;13.346;2023-04-06T00:05:15;101654.00;;;9.10
15845;BMP180;50807;52.436;13.346;2023-04-06T00:05:47;101623.00;;;9.10
15845;BMP180;50807;52.436;13.346;2023-04-06T00:06:18;101638.00;;;9.10
15845;BMP180;50807;52.436;13.346;2023-04-06T00:06:49;101647.00;;;9.10
15845;BMP180;50807;52.436;13.346;2023-04-06T00:07:20;101644.00;;;9.10
15845;BMP180;50807;52.436;13.346;2023-04-06T00:07:51;101645.00;;;9.10
15845;BMP180;50807;52.436;13.346;2023-04-06T00:08:23;101639.00;;;9.10
15845;BMP180;50807;52.436;13.346;2023-04-06T00:08:56;101645.00;;;9.10
15845;BMP180;50807;52.436;13.346;2023-04-06T00:09:27;101641.00;;;9.10
15845;BMP180;50807;52.436;13.346;2023-04-06T00:09:57;101642.00;;;9.10
15845;BMP180;50807;52.436;13.346;2023-04-06T00:10:29;101645.00;;;9.10
15845;BMP180;50807;52.436;13.346;2023-04-06T00:11:00;101642.00;;;9.00
15845;BMP180;50807;52.436;13.346;2023-04-06T00:11:32;101637.00;;;9.00
15845;BMP180;50807;52.436;13.346;2023-04-06T00:12:03;101636.00;;;9.00
15845;BMP180;50807;52.436;13.346;2023-04-06T00:12:33;101640.00;;;9.10
15845;BMP180;50807;52.436;13.346;2023-04-06T00:13:06;101639.00;;;9.00
15845;BMP180;50807;52.436;13.346;2023-04-06T00:13:38;101647.00;;;9.00
15845;BMP180;50807;52.436;13.346;2023-04-06T00:14:08;101649.00;;;9.00
15845;BMP180;50807;52.436;13.346;2023-04-06T00:14:39;101637.00;;;9.00
15845;BMP180;50807;52.436;13.346;2023-04-06T00:15:11;101642.00;;;9.00
15845;BMP180;50807;52.436;13.346;2023-04-06T00:15:42;101631.00;;;9.00
15845;BMP180;50807;52.436;13.346;2023-04-06T00:16:13;101638.00;;;9.00
15845;BMP180;50807;52.436;13.346;2023-04-06T00:16:44;101634.00;;;9.00
15845;BMP180;50807;52.436;13.346;2023-04-06T00:17:16;101640.00;;;9.00
15845;BMP180;50807;52.436;13.346;2023-04-06T00:17:46;101641.00;;;9.00
15845;BMP180;50807;52.436;13.346;2023-04-06T00:18:17;101635.00;;;9.00
15845;BMP180;50807;52.436;13.346;2023-04-06T00:18:50;101636.00;;;9.00
15845;BMP180;50807;52.436;13.346;2023-04-06T00:19:20;101645.00;;;8.90
15845;BMP180;50807;52.436;13.346;2023-04-06T00:19:51;101635.00;;;9.00
15845;BMP180;50807;52.436;13.346;2023-04-06T00:20:23;101646.00;;;8.90
15845;BMP180;50807;52.436;13.346;2023-04-06T00:20:54;101633.00;;;9.00
15845;BMP180;50807;52.436;13.346;2023-04-06T00:21:24;101639.00;;;9.00
15845;BMP180;50807;52.436;13.346;2023-04-06T00:21:57;101638.00;;;9.00
15845;BMP180;50807;52.436;13.346;2023-04-06T00:22:27;101638.00;;;9.00
15845;BMP180;50807;52.436;13.346;2023-04-06T00:22:58;101643.00;;;9.00
15845;BMP180;50807;52.436;13.346;2023-04-06T00:23:30;101637.00;;;9.00
15845;BMP180;50807;52.436;13.346;2023-04-06T00:24:02;101640.00;;;9.00
15845;BMP180;50807;52.436;13.346;2023-04-06T00:24:34;101635.00;;;9.00
15845;BMP180;50807;52.436;13.346;2023-04-06T00:25:06;101630.00;;;9.00
15845;BMP180;50807;52.436;13.346;2023-04-06T00:25:37;101635.00;;;9.00
15845;BMP180;50807;52.436;13.346;2023-04-06T00:26:08;101632.00;;;8.90
15845;BMP180;50807;52.436;13.346;2023-04-06T00:26:39;101631.00;;;8.90
15845;BMP180;50807;52.436;13.346;2023-04-06T00:27:11;101637.00;;;9.00
15845;BMP180;50807;52.436;13.346;2023-04-06T00:27:42;101630.00;;;8.90
15845;BMP180;50807;52.436;13.346;2023-04-06T00:28:12;101634.00;;;8.90
15845;BMP180;50807;52.436;13.346;2023-04-06T00:28:44;101631.00;;;8.90
15845;BMP180;50807;52.436;13.346;2023-04-06T00:29:15;101633.00;;;8.90
15845;BMP180;50807;52.436;13.346;2023-04-06T00:29:46;101633.00;;;8.90
15845;BMP180;50807;52.436;13.346;2023-04-06T00:30:18;101633.00;;;8.90
15845;BMP180;50807;52.436;13.346;2023-04-06T00:30:48;101629.00;;;8.90
15845;BMP180;50807;52.436;13.346;2023-04-06T00:31:19;101640.00;;;8.90
15845;BMP180;50807;52.436;13.346;2023-04-06T00:31:50;101636.00;;;8.90
15845;BMP180;50807;52.436;13.346;2023-04-06T00:32:22;101640.00;;;8.80
15845;BMP180;50807;52.436;13.346;2023-04-06T00:32:53;101635.00;;;8.80
15845;BMP180;50807;52.436;13.346;2023-04-06T00:33:24;101638.00;;;8.80
15845;BMP180;50807;52.436;13.346;2023-04-06T00:33:55;101638.00;;;8.80
15845;BMP180;50807;52.436;13.346;2023-04-06T00:34:26;101636.00;;;8.80
15845;BMP180;50807;52.436;13.346;2023-04-06T00:34:57;101638.00;;;8.80
15845;BMP180;50807;52.436;13.346;2023-04-06T00:35:29;101627.00;;;8.80
15845;BMP180;50807;52.436;13.346;2023-04-06T00:36:00;101635.00;;;8.80
15845;BMP180;50807;52.436;13.346;2023-04-06T00:36:31;101630.00;;;8.80
15845;BMP180;50807;52.436;13.346;2023-04-06T00:37:02;101629.00;;;8.80
15845;BMP180;50807;52.436;13.346;2023-04-06T00:37:33;101631.00;;;8.80
15845;BMP180;50807;52.436;13.346;2023-04-06T00:38:04;101631.00;;;8.80
15845;BMP180;50807;52.436;13.346;2023-04-06T00:38:35;101629.00;;;8.80
15845;BMP180;50807;52.436;13.346;2023-04-06T00:39:08;101632.00;;;8.70
15845;BMP180;50807;52.436;13.346;2023-04-06T00:39:38;101636.00;;;8.80
15845;BMP180;50807;52.436;13.346;2023-04-06T00:40:10;101631.00;;;8.80
15845;BMP180;50807;52.436;13.346;2023-04-06T00:40:42;101628.00;;;8.80
15845;BMP180;50807;52.436;13.346;2023-04-06T00:41:14;101642.00;;;8.70
15845;BMP180;50807;52.436;13.346;2023-04-06T00:41:50;101628.00;;;8.70
15845;BMP180;50807;52.436;13.346;2023-04-06T00:42:22;101625.00;;;8.70
15845;BMP180;50807;52.436;13.346;2023-04-06T00:42:56;101625.00;;;8.70
15845;BMP180;50807;52.436;13.346;2023-04-06T00:43:27;101626.00;;;8.70
15845;BMP180;50807;52.436;13.346;2023-04-06T00:43:58;101627.00;;;8.70
15845;BMP180;50807;52.436;13.346;2023-04-06T00:44:29;101630.00;;;8.70
15845;BMP180;50807;52.436;13.346;2023-04-06T00:45:01;101628.00;;;8.70
15845;BMP180;50807;52.436;13.346;2023-04-06T00:45:33;101625.00;;;8.70
15845;BMP180;50807;52.436;13.346;2023-04-06T00:46:04;101625.00;;;8.70
15845;BMP180;50807;52.436;13.346;2023-04-06T00:46:35;101626.00;;;8.70
15845;BMP180;50807;52.436;13.346;2023-04-06T00:47:07;101635.00;;;8.70
15845;BMP180;50807;52.436;13.346;2023-04-06T00:47:38;101609.00;;;8.70
15845;BMP180;50807;52.436;13.346;2023-04-06T00:48:10;101625.00;;;8.70
15845;BMP180;50807;52.436;13.346;2023-04-06T00:48:41;101623.00;;;8.60
15845;BMP180;50807;52.436;13.346;2023-04-06T00:49:12;101626.00;;;8.60
15845;BMP180;50807;52.436;13.346;2023-04-06T00:49:43;101630.00;;;8.60
15845;BMP180;50807;52.436;13.346;2023-04-06T00:50:14;101609.00;;;8.70
15845;BMP180;50807;52.436;13.346;2023-04-06T00:50:45;101630.00;;;8.60
15845;BMP180;50807;52.436;13.346;2023-04-06T00:51:16;101623.00;;;8.60
15845;BMP180;50807;52.436;13.346;2023-04-06T00:51:47;101626.00;;;8.60
15845;BMP180;50807;52.436;13.346;2023-04-06T00:52:19;101626.00;;;8.60
15845;BMP180;50807;52.436;13.346;2023-04-06T00:52:50;101623.00;;;8.60
15845;BMP180;50807;52.436;13.346;2023-04-06T00:53:21;101627.00;;;8.60
15845;BMP180;50807;52.436;13.346;2023-04-06T00:53:52;101628.00;;;8.50
15845;BMP180;50807;52.436;13.346;2023-04-06T00:54:24;101621.00;;;8.50
15845;BMP180;50807;52.436;13.346;2023-04-06T00:54:55;101628.00;;;8.50
15845;BMP180;50807;52.436;13.346;2023-04-06T00:55:27;101627.00;;;8.50
15845;BMP180;50807;52.436;13.346;2023-04-06T00:55:58;101632.00;;;8.50
15845;BMP180;50807;52.436;13.346;2023-04-06T00:56:30;101620.00;;;8.50
15845;BMP180;50807;52.436;13.346;2023-04-06T00:57:01;101627.00;;;8.50
15845;BMP180;50807;52.436;13.346;2023-04-06T00:57:33;101631.00;;;8.50
15845;BMP180;50807;52.436;13.346;2023-04-06T00:58:04;101626.00;;;8.50
15845;BMP180;50807;52.436;13.346;2023-04-06T00:58:35;101624.00;;;8.40
15845;BMP180;50807;52.436;13.346;2023-04-06T00:59:08;101633.00;;;8.40
15845;BMP180;50807;52.436;13.346;2023-04-06T00:59:39;101625.00;;;8.40
15845;BMP180;50807;52.436;13.346;2023-04-06T01:00:13;101619.00;;;8.40
15845;BMP180;50807;52.436;13.346;2023-04-06T01:00:45;101631.00;;;8.40
15845;BMP180;50807;52.436;13.346;2023-04-06T01:01:16;101625.00;;;8.40
15845;BMP180;50807;52.436;13.346;2023-04-06T01:01:47;101622.00;;;8.40
15845;BMP180;50807;52.436;13.346;2023-04-06T01:02:18;101629.00;;;8.40
15845;BMP180;50807;52.436;13.346;2023-04-06T01:02:50;101627.00;;;8.30
15845;BMP180;50807;52.436;13.346;2023-04-06T01:03:21;101632.00;;;8.40
15845;BMP180;50807;52.436;13.346;2023-04-06T01:03:52;101631.00;;;8.40
15845;BMP180;50807;52.436;13.346;2023-04-06T01:04:24;101629.00;;;8.40
15845;BMP180;50807;52.436;13.346;2023-04-06T01:04:55;101632.00;;;8.30
15845;BMP180;50807;52.436;13.346;2023-04-06T01:05:27;101622.00;;;8.30
15845;BMP180;50807;52.436;13.346;2023-04-06T01:05:58;101630.00;;;8.30
15845;BMP180;50807;52.436;13.346;2023-04-06T01:06:29;101630.00;;;8.30
15845;BMP180;50807;52.436;13.346;2023-04-06T01:07:00;101631.00;;;8.30
15845;BMP180;50807;52.436;13.346;2023-04-06T01:07:32;101626.00;;;8.30
15845;BMP180;50807;52.436;13.346;2023-04-06T01:08:03;101636.00;;;8.30
15845;BMP180;50807;52.436;13.346;2023-04-06T01:08:34;101632.00;;;8.30
15845;BMP180;50807;52.436;13.346;2023-04-06T01:09:04;101631.00;;;8.30
15845;BMP180;50807;52.436;13.346;2023-04-06T01:09:38;101628.00;;;8.30
15845;BMP180;50807;52.436;13.346;2023-04-06T01:10:22;101627.00;;;8.20
15845;BMP180;50807;52.436;13.346;2023-04-06T01:10:53;101630.00;;;8.20
15845;BMP180;50807;52.436;13.346;2023-04-06T01:11:24;101627.00;;;8.20
15845;BMP180;50807;52.436;13.346;2023-04-06T01:11:56;101630.00;;;8.20
15845;BMP180;50807;52.436;13.346;2023-04-06T01:12:27;101637.00;;;8.20
15845;BMP180;50807;52.436;13.346;2023-04-06T01:12:59;101635.00;;;8.30
15845;BMP180;50807;52.436;13.346;2023-04-06T01:13:30;101632.00;;;8.30
15845;BMP180;50807;52.436;13.346;2023-04-06T01:14:00;101624.00;;;8.30
15845;BMP180;50807;52.436;13.346;2023-04-06T01:14:31;101636.00;;;8.30
15845;BMP180;50807;52.436;13.346;2023-04-06T01:15:05;101632.00;;;8.30
15845;BMP180;50807;52.436;13.346;2023-04-06T01:15:37;101627.00;;;8.20
15845;BMP180;50807;52.436;13.346;2023-04-06T01:16:09;101623.00;;;8.20
15845;BMP180;50807;52.436;13.346;2023-04-06T01:16:41;101630.00;;;8.20
15845;BMP180;50807;52.436;13.346;2023-04-06T01:17:13;101623.00;;;8.20
15845;BMP180;50807;52.436;13.346;2023-04-06T01:17:44;101635.00;;;8.20
15845;BMP180;50807;52.436;13.346;2023-04-06T01:18:15;101631.00;;;8.20
15845;BMP180;50807;52.436;13.346;2023-04-06T01:18:46;101620.00;;;8.20
15845;BMP180;50807;52.436;13.346;2023-04-06T01:19:18;101628.00;;;8.20
15845;BMP180;50807;52.436;13.346;2023-04-06T01:19:49;101618.00;;;8.20
15845;BMP180;50807;52.436;13.346;2023-04-06T01:20:20;101628.00;;;8.20
15845;BMP180;50807;52.436;13.346;2023-04-06T01:20:52;101627.00;;;8.20
15845;BMP180;50807;52.436;13.346;2023-04-06T01:21:22;101622.00;;;8.20
15845;BMP180;50807;52.436;13.346;2023-04-06T01:21:53;101623.00;;;8.20
15845;BMP180;50807;52.436;13.346;2023-04-06T01:22:26;101623.00;;;8.20
15845;BMP180;50807;52.436;13.346;2023-04-06T01:22:57;101630.00;;;8.20
15845;BMP180;50807;52.436;13.346;2023-04-06T01:23:28;101628.00;;;8.20
15845;BMP180;50807;52.436;13.346;2023-04-06T01:23:58;101629.00;;;8.20
15845;BMP180;50807;52.436;13.346;2023-04-06T01:24:30;101629.00;;;8.20
15845;BMP180;50807;52.436;13.346;2023-04-06T01:25:01;101631.00;;;8.10
15845;BMP180;50807;52.436;13.346;2023-04-06T01:25:32;101623.00;;;8.20
15845;BMP180;50807;52.436;13.346;2023-04-06T01:26:03;101626.00;;;8.10
15845;BMP180;50807;52.436;13.346;2023-04-06T01:26:37;101618.00;;;8.10
15845;BMP180;50807;52.436;13.346;2023-04-06T01:27:08;101624.00;;;8.10
15845;BMP180;50807;52.436;13.346;2023-04-06T01:27:39;101623.00;;;8.10
15845;BMP180;50807;52.436;13.346;2023-04-06T01:28:11;101613.00;;;8.10
15845;BMP180;50807;52.436;13.346;2023-04-06T01:28:41;101627.00;;;8.10
15845;BMP180;50807;52.436;13.346;2023-04-06T01:29:12;101624.00;;;8.10
15845;BMP180;50807;52.436;13.346;2023-04-06T01:29:43;101626.00;;;8.10
15845;BMP180;50807;52.436;13.346;2023-04-06T01:30:15;101618.00;;;8.10
15845;BMP180;50807;52.436;13.346;2023-04-06T01:30:47;101624.00;;;8.10
15845;BMP180;50807;52.436;13.346;2023-04-06T01:31:18;101624.00;;;8.10
15845;BMP180;50807;52.436;13.346;2023-04-06T01:31:50;101627.00;;;8.10
15845;BMP180;50807;52.436;13.346;2023-04-06T01:32:21;101622.00;;;8.00
15845;BMP180;50807;52.436;13.346;2023-04-06T01:32:52;101622.00;;;8.00
15845;BMP180;50807;52.436;13.346;2023-04-06T01:33:23;101625.00;;;8.10
15845;BMP180;50807;52.436;13.346;2023-04-06T01:33:55;101628.00;;;8.10
15845;BMP180;50807;52.436;13.346;2023-04-06T01:34:26;101632.00;;;8.10
15845;BMP180;50807;52.436;13.346;2023-04-06T01:34:57;101624.00;;;8.10
15845;BMP180;50807;52.436;13.346;2023-04-06T01:35:28;101617.00;;;8.00
15845;BMP180;50807;52.436;13.346;2023-04-06T01:36:00;101617.00;;;8.00
15845;BMP180;50807;52.436;13.346;2023-04-06T01:36:31;101618.00;;;8.10
15845;BMP180;50807;52.436;13.346;2023-04-06T01:37:02;101629.00;;;8.00
15845;BMP180;50807;52.436;13.346;2023-04-06T01:37:35;101618.00;;;8.00
15845;BMP180;50807;52.436;13.346;2023-04-06T01:38:05;101625.00;;;8.00
15845;BMP180;50807;52.436;13.346;2023-04-06T01:38:36;101622.00;;;8.00
15845;BMP180;50807;52.436;13.346;2023-04-06T01:39:07;101625.00;;;8.00
15845;BMP180;50807;52.436;13.346;2023-04-06T01:39:39;101629.00;;;8.00
15845;BMP180;50807;52.436;13.346;2023-04-06T01:40:11;101623.00;;;8.00
15845;BMP180;50807;52.436;13.346;2023-04-06T01:40:42;101620.00;;;8.00
15845;BMP180;50807;52.436;13.346;2023-04-06T01:41:13;101629.00;;;8.00
15845;BMP180;50807;52.436;13.346;2023-04-06T01:41:45;101625.00;;;8.00
15845;BMP180;50807;52.436;13.346;2023-04-06T01:42:17;101627.00;;;8.00
15845;BMP180;50807;52.436;13.346;2023-04-06T01:42:48;101625.00;;;8.00
15845;BMP180;50807;52.436;13.346;2023-04-06T01:43:19;101620.00;;;8.00
15845;BMP180;50807;52.436;13.346;2023-04-06T01:43:50;101620.00;;;8.00
15845;BMP180;50807;52.436;13.346;2023-04-06T01:44:24;101617.00;;;8.00
15845;BMP180;50807;52.436;13.346;2023-04-06T01:44:56;101624.00;;;7.90
15845;BMP180;50807;52.436;13.346;2023-04-06T01:45:27;101626.00;;;7.90
15845;BMP180;50807;52.436;13.346;2023-04-06T01:45:58;101626.00;;;7.90
15845;BMP180;50807;52.436;13.346;2023-04-06T01:46:28;101623.00;;;7.90
15845;BMP180;50807;52.436;13.346;2023-04-06T01:47:00;101625.00;;;7.90
15845;BMP180;50807;52.436;13.346;2023-04-06T01:47:31;101625.00;;;7.90
15845;BMP180;50807;52.436;13.346;2023-04-06T01:48:02;101624.00;;;7.90
15845;BMP180;50807;52.436;13.346;2023-04-06T01:48:33;101625.00;;;7.80
15845;BMP180;50807;52.436;13.346;2023-04-06T01:49:04;101617.00;;;7.80
15845;BMP180;50807;52.436;13.346;2023-04-06T01:49:35;101617.00;;;7.80
15845;BMP180;50807;52.436;13.346;2023-04-06T01:50:07;101623.00;;;7.80
15845;BMP180;50807;52.436;13.346;2023-04-06T01:50:39;101616.00;;;7.80
15845;BMP180;50807;52.436;13.346;2023-04-06T01:51:09;101614.00;;;7.80
15845;BMP180;50807;52.436;13.346;2023-04-06T01:51:40;101621.00;;;7.80
15845;BMP180;50807;52.436;13.346;2023-04-06T01:52:12;101619.00;;;7.80
15845;BMP180;50807;52.436;13.346;2023-04-06T01:52:44;101605.00;;;7.80
15845;BMP180;50807;52.436;13.346;2023-04-06T01:53:15;101613.00;;;7.80
15845;BMP180;50807;52.436;13.346;2023-04-06T01:53:46;101609.00;;;7.80
15845;BMP180;50807;52.436;13.346;2023-04-06T01:54:19;101615.00;;;7.80
15845;BMP180;50807;52.436;13.346;2023-04-06T01:54:50;101618.00;;;7.80
15845;BMP180;50807;52.436;13.346;2023-04-06T01:55:21;101613.00;;;7.80
15845;BMP180;50807;52.436;13.346;2023-04-06T01:55:52;101615.00;;;7.80
15845;BMP180;50807;52.436;13.346;2023-04-06T01:56:24;101619.00;;;7.70
15845;BMP180;50807;52.436;13.346;2023-04-06T01:56:55;101609.00;;;7.70
15845;BMP180;50807;52.436;13.346;2023-04-06T01:57:25;101607.00;;;7.70
15845;BMP180;50807;52.436;13.346;2023-04-06T01:57:58;101614.00;;;7.70
15845;BMP180;50807;52.436;13.346;2023-04-06T01:58:28;101616.00;;;7.70
15845;BMP180;50807;52.436;13.346;2023-04-06T01:58:59;101618.00;;;7.70
15845;BMP180;50807;52.436;13.346;2023-04-06T01:59:31;101609.00;;;7.70
15845;BMP180;50807;52.436;13.346;2023-04-06T02:00:02;101612.00;;;7.70
15845;BMP180;50807;52.436;13.346;2023-04-06T02:00:33;101612.00;;;7.70
15845;BMP180;50807;52.436;13.346;2023-04-06T02:01:04;101607.00;;;7.70
15845;BMP180;50807;52.436;13.346;2023-04-06T02:01:36;101603.00;;;7.70
15845;BMP180;50807;52.436;13.346;2023-04-06T02:02:06;101605.00;;;7.70
15845;BMP180;50807;52.436;13.346;2023-04-06T02:02:37;101594.00;;;7.70
15845;BMP180;50807;52.436;13.346;2023-04-06T02:03:09;101606.00;;;7.70
15845;BMP180;50807;52.436;13.346;2023-04-06T02:03:40;101605.00;;;7.60
15845;BMP180;50807;52.436;13.346;2023-04-06T02:04:10;101618.00;;;7.60
15845;BMP180;50807;52.436;13.346;2023-04-06T02:04:44;101601.00;;;7.60
15845;BMP180;50807;52.436;13.346;2023-04-06T02:05:14;101604.00;;;7.60
15845;BMP180;50807;52.436;13.346;2023-04-06T02:05:45;101613.00;;;7.60
15845;BMP180;50807;52.436;13.346;2023-04-06T02:06:16;101612.00;;;7.60
15845;BMP180;50807;52.436;13.346;2023-04-06T02:06:48;101607.00;;;7.60
15845;BMP180;50807;52.436;13.346;2023-04-06T02:07:18;101609.00;;;7.60
15845;BMP180;50807;52.436;13.346;2023-04-06T02:07:50;101600.00;;;7.50
15845;BMP180;50807;52.436;13.346;2023-04-06T02:08:22;101585.00;;;7.60
15845;BMP180;50807;52.436;13.346;2023-04-06T02:08:53;101604.00;;;7.60
15845;BMP180;50807;52.436;13.346;2023-04-06T02:09:24;101599.00;;;7.60
15845;BMP180;50807;52.436;13.346;2023-04-06T02:09:55;101597.00;;;7.50
15845;BMP180;50807;52.436;13.346;2023-04-06T02:10:27;101601.00;;;7.50
15845;BMP180;50807;52.436;13.346;2023-04-06T02:10:58;101614.00;;;7.50
15845;BMP180;50807;52.436;13.346;2023-04-06T02:11:28;101604.00;;;7.50
15845;BMP180;50807;52.436;13.346;2023-04-06T02:12:00;101608.00;;;7.50
15845;BMP180;50807;52.436;13.346;2023-04-06T02:12:32;101599.00;;;7.50
15845;BMP180;50807;52.436;13.346;2023-04-06T02:13:03;101603.00;;;7.50
15845;BMP180;50807;52.436;13.346;2023-04-06T02:13:33;101604.00;;;7.60
15845;BMP180;50807;52.436;13.346;2023-04-06T02:14:05;101602.00;;;7.60
15845;BMP180;50807;52.436;13.346;2023-04-06T02:14:36;101609.00;;;7.60
15845;BMP180;50807;52.436;13.346;2023-04-06T02:15:08;101609.00;;;7.50
15845;BMP180;50807;52.436;13.346;2023-04-06T02:15:39;101612.00;;;7.50
15845;BMP180;50807;52.436;13.346;2023-04-06T02:16:10;101601.00;;;7.50
15845;BMP180;50807;52.436;13.346;2023-04-06T02:16:41;101609.00;;;7.40
15845;BMP180;50807;52.436;13.346;2023-04-06T02:17:12;101601.00;;;7.50
15845;BMP180;50807;52.436;13.346;2023-04-06T02:17:44;101613.00;;;7.50
15845;BMP180;50807;52.436;13.346;2023-04-06T02:18:15;101612.00;;;7.50
15845;BMP180;50807;52.436;13.346;2023-04-06T02:18:49;101605.00;;;7.50
15845;BMP180;50807;52.436;13.346;2023-04-06T02:19:21;101602.00;;;7.50
15845;BMP180;50807;52.436;13.346;2023-04-06T02:19:52;101616.00;;;7.40
15845;BMP180;50807;52.436;13.346;2023-04-06T02:20:23;101607.00;;;7.40
15845;BMP180;50807;52.436;13.346;2023-04-06T02:20:55;101607.00;;;7.40
15845;BMP180;50807;52.436;13.346;2023-04-06T02:21:26;101608.00;;;7.40
15845;BMP180;50807;52.436;13.346;2023-04-06T02:21:57;101613.00;;;7.30
15845;BMP180;50807;52.436;13.346;2023-04-06T02:22:28;101614.00;;;7.40
15845;BMP180;50807;52.436;13.346;2023-04-06T02:23:00;101618.00;;;7.30
15845;BMP180;50807;52.436;13.346;2023-04-06T02:23:31;101613.00;;;7.30
15845;BMP180;50807;52.436;13.346;2023-04-06T02:24:02;101625.00;;;7.30
15845;BMP180;50807;52.436;13.346;2023-04-06T02:24:34;101617.00;;;7.30
15845;BMP180;50807;52.436;13.346;2023-04-06T02:25:05;101609.00;;;7.30
15845;BMP180;50807;52.436;13.346;2023-04-06T02:25:36;101612.00;;;7.20
15845;BMP180;50807;52.436;13.346;2023-04-06T02:26:08;101612.00;;;7.30
15845;BMP180;50807;52.436;13.346;2023-04-06T02:26:38;101612.00;;;7.30
15845;BMP180;50807;52.436;13.346;2023-04-06T02:27:09;101609.00;;;7.20
15845;BMP180;50807;52.436;13.346;2023-04-06T02:27:40;101616.00;;;7.20
15845;BMP180;50807;52.436;13.346;2023-04-06T02:28:12;101613.00;;;7.20
15845;BMP180;50807;52.436;13.346;2023-04-06T02:28:43;101616.00;;;7.20
15845;BMP180;50807;52.436;13.346;2023-04-06T02:29:13;101615.00;;;7.30
15845;BMP180;50807;52.436;13.346;2023-04-06T02:29:45;101612.00;;;7.20
15845;BMP180;50807;52.436;13.346;2023-04-06T02:30:16;101588.00;;;7.20
15845;BMP180;50807;52.436;13.346;2023-04-06T02:30:47;101609.00;;;7.30
15845;BMP180;50807;52.436;13.346;2023-04-06T02:31:18;101616.00;;;7.20
15845;BMP180;50807;52.436;13.346;2023-04-06T02:31:49;101613.00;;;7.20
15845;BMP180;50807;52.436;13.346;2023-04-06T02:32:20;101609.00;;;7.20
15845;BMP180;50807;52.436;13.346;2023-04-06T02:32:53;101609.00;;;7.20
15845;BMP180;50807;52.436;13.346;2023-04-06T02:33:23;101605.00;;;7.10
15845;BMP180;50807;52.436;13.346;2023-04-06T02:33:54;101608.00;;;7.20
15845;BMP180;50807;52.436;13.346;2023-04-06T02:34:26;101614.00;;;7.20
15845;BMP180;50807;52.436;13.346;2023-04-06T02:34:56;101619.00;;;7.20
15845;BMP180;50807;52.436;13.346;2023-04-06T02:35:28;101614.00;;;7.20
15845;BMP180;50807;52.436;13.346;2023-04-06T02:35:59;101608.00;;;7.20
15845;BMP180;50807;52.436;13.346;2023-04-06T02:36:31;101616.00;;;7.20
15845;BMP180;50807;52.436;13.346;2023-04-06T02:37:02;101622.00;;;7.20
15845;BMP180;50807;52.436;13.346;2023-04-06T02:37:32;101620.00;;;7.20
15845;BMP180;50807;52.436;13.346;2023-04-06T02:38:05;101609.00;;;7.20
15845;BMP180;50807;52.436;13.346;2023-04-06T02:38:36;101612.00;;;7.20
15845;BMP180;50807;52.436;13.346;2023-04-06T02:39:07;101622.00;;;7.20
15845;BMP180;50807;52.436;13.346;2023-04-06T02:39:38;101622.00;;;7.20
15845;BMP180;50807;52.436;13.346;2023-04-06T02:40:10;101622.00;;;7.20
15845;BMP180;50807;52.436;13.346;2023-04-06T02:40:41;101616.00;;;7.30
15845;BMP180;50807;52.436;13.346;2023-04-06T02:41:13;101606.00;;;7.30
15845;BMP180;50807;52.436;13.346;2023-04-06T02:41:44;101620.00;;;7.30
15845;BMP180;50807;52.436;13.346;2023-04-06T02:42:15;101616.00;;;7.30
15845;BMP180;50807;52.436;13.346;2023-04-06T02:42:46;101622.00;;;7.30
15845;BMP180;50807;52.436;13.346;2023-04-06T02:43:18;101623.00;;;7.30
15845;BMP180;50807;52.436;13.346;2023-04-06T02:43:49;101620.00;;;7.30
15845;BMP180;50807;52.436;13.346;2023-04-06T02:44:20;101618.00;;;7.30
15845;BMP180;50807;52.436;13.346;2023-04-06T02:44:52;101618.00;;;7.30
15845;BMP180;50807;52.436;13.346;2023-04-06T02:45:23;101621.00;;;7.30
15845;BMP180;50807;52.436;13.346;2023-04-06T02:45:53;101623.00;;;7.20
15845;BMP180;50807;52.436;13.346;2023-04-06T02:46:25;101616.00;;;7.30
15845;BMP180;50807;52.436;13.346;2023-04-06T02:46:56;101613.00;;;7.30
15845;BMP180;50807;52.436;13.346;2023-04-06T02:47:27;101626.00;;;7.30
15845;BMP180;50807;52.436;13.346;2023-04-06T02:47:58;101620.00;;;7.30
15845;BMP180;50807;52.436;13.346;2023-04-06T02:49:03;101626.00;;;7.20
15845;BMP180;50807;52.436;13.346;2023-04-06T02:49:35;101620.00;;;7.30
15845;BMP180;50807;52.436;13.346;2023-04-06T02:50:06;101620.00;;;7.20
15845;BMP180;50807;52.436;13.346;2023-04-06T02:50:37;101625.00;;;7.30
15845;BMP180;50807;52.436;13.346;2023-04-06T02:51:09;101625.00;;;7.20
15845;BMP180;50807;52.436;13.346;2023-04-06T02:51:39;101627.00;;;7.20
15845;BMP180;50807;52.436;13.346;2023-04-06T02:52:10;101623.00;;;7.20
15845;BMP180;50807;52.436;13.346;2023-04-06T02:52:42;101624.00;;;7.20
15845;BMP180;50807;52.436;13.346;2023-04-06T02:53:14;101619.00;;;7.20
15845;BMP180;50807;52.436;13.346;2023-04-06T02:53:45;101622.00;;;7.20
15845;BMP180;50807;52.436;13.346;2023-04-06T02:54:15;101614.00;;;7.20
15845;BMP180;50807;52.436;13.346;2023-04-06T02:54:47;101619.00;;;7.10
15845;BMP180;50807;52.436;13.346;2023-04-06T02:55:18;101616.00;;;7.10
15845;BMP180;50807;52.436;13.346;2023-04-06T02:55:50;101619.00;;;7.20
15845;BMP180;50807;52.436;13.346;2023-04-06T02:56:21;101616.00;;;7.10
15845;BMP180;50807;52.436;13.346;2023-04-06T02:56:52;101613.00;;;7.10
15845;BMP180;50807;52.436;13.346;2023-04-06T02:57:23;101626.00;;;7.10
15845;BMP180;50807;52.436;13.346;2023-04-06T02:57:54;101621.00;;;7.10
15845;BMP180;50807;52.436;13.346;2023-04-06T02:58:25;101619.00;;;7.00